13:55
Airports
History
Links
Donate
Help keep this website running!
PayPal
Bitcoin
This page is community maintained. The information is intended for PC simulator navigation or reference.
Always use approved charts for navigation.
SNDR
DOMINGOS REGO
DOMINGOS REGO (SNDR)
Timon, Maranhão, Brazil
(U)
Lat/Lng:5° 4' 47.25" S / 42° 52' 25.18" W
-5.079791 / -42.873661
Elevation:373'ft / 114mMSL
ID / ICAO:SNDR
Runways:1
Longest:02-20
Asphalt 1,722m / 5,650ft
Nearby Weather13:00 GMT 2017-11-18
Nearby weather at SBTE, Senador Petronio Portella located 3.7 nautical miles from SNDR
Altimeter: 29.83
Visibility: 6.2 statute miles
Wind: 7 knots (from 080°)
Temp: 34°c / 93°f
Humidity: 38.8%

METAR: SBTE 181300Z 08007KT CAVOK 34/18 Q1010

(Powered by phpweather)
Runway 02 / 20
Dimensions:1722 x 29.9m 5650' x 98'ft
Surface:Asphalt
Edge Lights:Low intensity
Runway 02 [A]Runway 20 [B]
Heading:355°TH 175°TH
Lat:
Lng:
5° 5' 15.06"S
42° 52' 22.81"W
5° 4' 19.43"S
42° 52' 27.55"W
User Notes and Comments
5° 4' 47.25" S / 42° 52' 25.18" W
Distance To
Airport ID:
Nearby Airports
(C) Senador Petronio Portella 3.7 NM
SBTE ( WX ) ENE 68°
(U) Tambori 12.0 NM
SNTC ESE 117°
4 Nossa Senhora de Fatima 12.0 NM
SNNF ENE 74°
4 Tambori 13.1 NM
SNWQ ESE 115°
(C) Caxias 36.0 NM
SNXS WNW 294°
(U) Campo Maior 45.0 NM
SDYX ENE 69°
4 Fazenda Canabrava 46.7 NM
SNPF SW 220°
VFR Chart
Flight Planning at SkyVector.com